sensor_id;sensor_type;location;lat;lon;timestamp;P1;durP1;ratioP1;P2;durP2;ratioP2
53207;SDS011;39093;52.788;6.940;2023-03-01T00:01:11;21.90;;;14.05;;
53207;SDS011;39093;52.788;6.940;2023-03-01T00:03:40;22.60;;;15.32;;
53207;SDS011;39093;52.788;6.940;2023-03-01T00:06:07;24.17;;;15.68;;
53207;SDS011;39093;52.788;6.940;2023-03-01T00:08:35;24.77;;;17.05;;
53207;SDS011;39093;52.788;6.940;2023-03-01T00:11:10;28.00;;;17.02;;
53207;SDS011;39093;52.788;6.940;2023-03-01T00:13:55;23.55;;;16.63;;
53207;SDS011;39093;52.788;6.940;2023-03-01T00:16:28;31.20;;;19.00;;
53207;SDS011;39093;52.788;6.940;2023-03-01T00:18:57;28.20;;;19.45;;
53207;SDS011;39093;52.788;6.940;2023-03-01T00:21:24;31.80;;;20.85;;
53207;SDS011;39093;52.788;6.940;2023-03-01T00:23:52;33.13;;;22.30;;
53207;SDS011;39093;52.788;6.940;2023-03-01T00:26:21;28.70;;;20.58;;
53207;SDS011;39093;52.788;6.940;2023-03-01T00:28:48;28.23;;;20.50;;
53207;SDS011;39093;52.788;6.940;2023-03-01T00:31:17;29.95;;;20.50;;
53207;SDS011;39093;52.788;6.940;2023-03-01T00:33:46;31.52;;;20.27;;
53207;SDS011;39093;52.788;6.940;2023-03-01T00:36:14;28.88;;;20.50;;
53207;SDS011;39093;52.788;6.940;2023-03-01T00:38:43;31.95;;;21.52;;
53207;SDS011;39093;52.788;6.940;2023-03-01T00:41:12;30.52;;;21.52;;
53207;SDS011;39093;52.788;6.940;2023-03-01T00:43:41;31.73;;;21.08;;
53207;SDS011;39093;52.788;6.940;2023-03-01T00:46:10;29.73;;;20.27;;
53207;SDS011;39093;52.788;6.940;2023-03-01T00:48:38;28.75;;;20.60;;
53207;SDS011;39093;52.788;6.940;2023-03-01T00:53:35;32.45;;;20.88;;
53207;SDS011;39093;52.788;6.940;2023-03-01T00:56:03;29.88;;;21.05;;
53207;SDS011;39093;52.788;6.940;2023-03-01T00:58:31;28.38;;;20.33;;
53207;SDS011;39093;52.788;6.940;2023-03-01T01:00:59;29.80;;;20.95;;
53207;SDS011;39093;52.788;6.940;2023-03-01T01:03:27;36.83;;;20.58;;
53207;SDS011;39093;52.788;6.940;2023-03-01T01:05:54;27.58;;;19.38;;
53207;SDS011;39093;52.788;6.940;2023-03-01T01:08:21;29.92;;;21.05;;
53207;SDS011;39093;52.788;6.940;2023-03-01T01:10:47;26.52;;;20.02;;
53207;SDS011;39093;52.788;6.940;2023-03-01T01:13:14;29.45;;;20.00;;
53207;SDS011;39093;52.788;6.940;2023-03-01T01:15:41;32.00;;;20.58;;
53207;SDS011;39093;52.788;6.940;2023-03-01T01:18:08;31.40;;;21.13;;
53207;SDS011;39093;52.788;6.940;2023-03-01T01:20:35;31.23;;;21.65;;
53207;SDS011;39093;52.788;6.940;2023-03-01T01:23:04;32.47;;;21.15;;
53207;SDS011;39093;52.788;6.940;2023-03-01T01:25:34;28.95;;;20.40;;
53207;SDS011;39093;52.788;6.940;2023-03-01T01:28:02;26.45;;;19.50;;
53207;SDS011;39093;52.788;6.940;2023-03-01T01:30:29;27.27;;;19.80;;
53207;SDS011;39093;52.788;6.940;2023-03-01T01:32:56;29.30;;;20.73;;
53207;SDS011;39093;52.788;6.940;2023-03-01T01:35:23;31.42;;;20.70;;
53207;SDS011;39093;52.788;6.940;2023-03-01T01:37:50;26.30;;;19.60;;
53207;SDS011;39093;52.788;6.940;2023-03-01T01:40:17;30.77;;;21.73;;
53207;SDS011;39093;52.788;6.940;2023-03-01T01:42:44;30.35;;;22.05;;
53207;SDS011;39093;52.788;6.940;2023-03-01T01:48:00;30.88;;;21.70;;
53207;SDS011;39093;52.788;6.940;2023-03-01T01:50:31;30.85;;;21.65;;
53207;SDS011;39093;52.788;6.940;2023-03-01T01:53:09;27.08;;;19.98;;
53207;SDS011;39093;52.788;6.940;2023-03-01T01:55:43;28.50;;;21.15;;
53207;SDS011;39093;52.788;6.940;2023-03-01T01:58:14;30.30;;;20.55;;
53207;SDS011;39093;52.788;6.940;2023-03-01T02:00:45;32.20;;;21.33;;
53207;SDS011;39093;52.788;6.940;2023-03-01T02:03:13;31.27;;;22.23;;
53207;SDS011;39093;52.788;6.940;2023-03-01T02:08:21;29.85;;;20.13;;
53207;SDS011;39093;52.788;6.940;2023-03-01T02:10:51;33.97;;;21.77;;
53207;SDS011;39093;52.788;6.940;2023-03-01T02:13:19;31.23;;;21.42;;
53207;SDS011;39093;52.788;6.940;2023-03-01T02:15:46;31.58;;;22.23;;
53207;SDS011;39093;52.788;6.940;2023-03-01T02:18:14;36.22;;;22.55;;
53207;SDS011;39093;52.788;6.940;2023-03-01T02:20:54;31.13;;;20.70;;
53207;SDS011;39093;52.788;6.940;2023-03-01T02:23:34;30.98;;;20.98;;
53207;SDS011;39093;52.788;6.940;2023-03-01T02:29:01;31.30;;;21.25;;
53207;SDS011;39093;52.788;6.940;2023-03-01T02:31:28;34.97;;;21.95;;
53207;SDS011;39093;52.788;6.940;2023-03-01T02:36:47;29.65;;;21.95;;
53207;SDS011;39093;52.788;6.940;2023-03-01T02:39:22;31.10;;;21.88;;
53207;SDS011;39093;52.788;6.940;2023-03-01T02:41:53;31.75;;;19.77;;
53207;SDS011;39093;52.788;6.940;2023-03-01T02:44:22;30.73;;;21.65;;
53207;SDS011;39093;52.788;6.940;2023-03-01T02:46:51;30.15;;;20.25;;
53207;SDS011;39093;52.788;6.940;2023-03-01T02:57:32;31.63;;;20.85;;
53207;SDS011;39093;52.788;6.940;2023-03-01T03:00:03;26.88;;;19.98;;
53207;SDS011;39093;52.788;6.940;2023-03-01T03:02:35;29.08;;;20.77;;
53207;SDS011;39093;52.788;6.940;2023-03-01T03:07:33;28.25;;;20.25;;
53207;SDS011;39093;52.788;6.940;2023-03-01T03:10:02;30.85;;;20.88;;
53207;SDS011;39093;52.788;6.940;2023-03-01T03:12:30;30.73;;;19.73;;
53207;SDS011;39093;52.788;6.940;2023-03-01T03:14:56;28.58;;;19.92;;
53207;SDS011;39093;52.788;6.940;2023-03-01T03:17:23;30.73;;;20.77;;
53207;SDS011;39093;52.788;6.940;2023-03-01T03:19:50;28.38;;;19.95;;
53207;SDS011;39093;52.788;6.940;2023-03-01T03:22:17;27.88;;;20.00;;
53207;SDS011;39093;52.788;6.940;2023-03-01T03:24:44;27.55;;;19.77;;
53207;SDS011;39093;52.788;6.940;2023-03-01T03:27:11;29.48;;;20.38;;
53207;SDS011;39093;52.788;6.940;2023-03-01T03:29:38;31.60;;;19.73;;
53207;SDS011;39093;52.788;6.940;2023-03-01T03:32:04;29.13;;;20.05;;
53207;SDS011;39093;52.788;6.940;2023-03-01T03:34:31;32.92;;;21.08;;
53207;SDS011;39093;52.788;6.940;2023-03-01T03:36:58;26.75;;;20.30;;
53207;SDS011;39093;52.788;6.940;2023-03-01T03:39:26;23.52;;;18.08;;
53207;SDS011;39093;52.788;6.940;2023-03-01T03:41:53;29.08;;;19.45;;
53207;SDS011;39093;52.788;6.940;2023-03-01T03:44:20;30.02;;;19.95;;
53207;SDS011;39093;52.788;6.940;2023-03-01T03:46:47;25.52;;;18.70;;
53207;SDS011;39093;52.788;6.940;2023-03-01T03:49:14;26.83;;;18.80;;
53207;SDS011;39093;52.788;6.940;2023-03-01T03:51:41;31.40;;;20.05;;
53207;SDS011;39093;52.788;6.940;2023-03-01T03:54:08;26.75;;;19.55;;
53207;SDS011;39093;52.788;6.940;2023-03-01T03:56:34;28.33;;;19.80;;
53207;SDS011;39093;52.788;6.940;2023-03-01T03:59:01;27.83;;;20.35;;
53207;SDS011;39093;52.788;6.940;2023-03-01T04:01:28;27.13;;;19.40;;
53207;SDS011;39093;52.788;6.940;2023-03-01T04:03:55;26.67;;;18.58;;
53207;SDS011;39093;52.788;6.940;2023-03-01T04:06:22;28.60;;;19.45;;
53207;SDS011;39093;52.788;6.940;2023-03-01T04:08:49;27.38;;;20.38;;
53207;SDS011;39093;52.788;6.940;2023-03-01T04:11:17;29.10;;;19.48;;
53207;SDS011;39093;52.788;6.940;2023-03-01T04:13:54;29.20;;;19.60;;
53207;SDS011;39093;52.788;6.940;2023-03-01T04:16:22;39.45;;;22.33;;
53207;SDS011;39093;52.788;6.940;2023-03-01T04:18:50;29.88;;;21.00;;
53207;SDS011;39093;52.788;6.940;2023-03-01T04:21:18;29.67;;;20.23;;
53207;SDS011;39093;52.788;6.940;2023-03-01T04:23:46;31.00;;;20.60;;
53207;SDS011;39093;52.788;6.940;2023-03-01T04:26:13;26.50;;;20.08;;
53207;SDS011;39093;52.788;6.940;2023-03-01T04:28:41;27.55;;;20.08;;
53207;SDS011;39093;52.788;6.940;2023-03-01T04:31:13;31.60;;;20.08;;
53207;SDS011;39093;52.788;6.940;2023-03-01T04:33:47;29.13;;;19.73;;
53207;SDS011;39093;52.788;6.940;2023-03-01T04:36:18;29.27;;;20.25;;
53207;SDS011;39093;52.788;6.940;2023-03-01T04:38:46;32.40;;;20.40;;
53207;SDS011;39093;52.788;6.940;2023-03-01T04:41:14;31.83;;;21.42;;
53207;SDS011;39093;52.788;6.940;2023-03-01T04:43:43;31.25;;;21.08;;
53207;SDS011;39093;52.788;6.940;2023-03-01T04:46:11;32.05;;;21.70;;
53207;SDS011;39093;52.788;6.940;2023-03-01T04:48:41;37.70;;;21.85;;
53207;SDS011;39093;52.788;6.940;2023-03-01T04:51:09;33.17;;;21.55;;
53207;SDS011;39093;52.788;6.940;2023-03-01T04:53:40;32.53;;;20.92;;
53207;SDS011;39093;52.788;6.940;2023-03-01T04:56:07;27.90;;;20.20;;
53207;SDS011;39093;52.788;6.940;2023-03-01T04:58:34;30.10;;;20.90;;
53207;SDS011;39093;52.788;6.940;2023-03-01T05:01:07;31.15;;;21.27;;
53207;SDS011;39093;52.788;6.940;2023-03-01T05:03:42;30.48;;;20.42;;
53207;SDS011;39093;52.788;6.940;2023-03-01T05:06:10;30.98;;;22.00;;
53207;SDS011;39093;52.788;6.940;2023-03-01T05:08:38;29.73;;;20.08;;
53207;SDS011;39093;52.788;6.940;2023-03-01T05:11:06;32.08;;;21.30;;
53207;SDS011;39093;52.788;6.940;2023-03-01T05:13:35;30.05;;;20.60;;
53207;SDS011;39093;52.788;6.940;2023-03-01T05:16:03;35.53;;;22.17;;
53207;SDS011;39093;52.788;6.940;2023-03-01T05:18:32;38.35;;;22.73;;
53207;SDS011;39093;52.788;6.940;2023-03-01T05:21:04;33.90;;;22.95;;
53207;SDS011;39093;52.788;6.940;2023-03-01T05:23:33;30.52;;;21.63;;
53207;SDS011;39093;52.788;6.940;2023-03-01T05:26:01;34.75;;;21.35;;
53207;SDS011;39093;52.788;6.940;2023-03-01T05:28:32;34.58;;;22.95;;
53207;SDS011;39093;52.788;6.940;2023-03-01T05:31:00;33.95;;;22.50;;
53207;SDS011;39093;52.788;6.940;2023-03-01T05:33:27;38.67;;;22.83;;
53207;SDS011;39093;52.788;6.940;2023-03-01T05:35:54;35.55;;;23.65;;
53207;SDS011;39093;52.788;6.940;2023-03-01T05:38:20;30.70;;;21.15;;
53207;SDS011;39093;52.788;6.940;2023-03-01T05:40:48;34.05;;;23.77;;
53207;SDS011;39093;52.788;6.940;2023-03-01T05:43:16;32.83;;;22.25;;
53207;SDS011;39093;52.788;6.940;2023-03-01T05:45:44;33.70;;;22.42;;
53207;SDS011;39093;52.788;6.940;2023-03-01T05:48:12;34.28;;;22.20;;
53207;SDS011;39093;52.788;6.940;2023-03-01T05:50:43;32.25;;;23.55;;
53207;SDS011;39093;52.788;6.940;2023-03-01T05:53:15;31.17;;;21.60;;
53207;SDS011;39093;52.788;6.940;2023-03-01T05:55:45;35.17;;;20.42;;
53207;SDS011;39093;52.788;6.940;2023-03-01T05:58:15;31.15;;;21.70;;
53207;SDS011;39093;52.788;6.940;2023-03-01T06:00:44;31.67;;;21.38;;
53207;SDS011;39093;52.788;6.940;2023-03-01T06:03:14;32.83;;;22.10;;
53207;SDS011;39093;52.788;6.940;2023-03-01T06:05:42;30.15;;;20.75;;
53207;SDS011;39093;52.788;6.940;2023-03-01T06:08:10;32.63;;;21.35;;
53207;SDS011;39093;52.788;6.940;2023-03-01T06:10:37;29.45;;;21.38;;
53207;SDS011;39093;52.788;6.940;2023-03-01T06:13:04;38.58;;;21.52;;
53207;SDS011;39093;52.788;6.940;2023-03-01T06:15:31;31.55;;;21.23;;
53207;SDS011;39093;52.788;6.940;2023-03-01T06:17:59;30.73;;;21.20;;
53207;SDS011;39093;52.788;6.940;2023-03-01T06:20:26;28.90;;;21.08;;
53207;SDS011;39093;52.788;6.940;2023-03-01T06:22:55;32.53;;;21.52;;
53207;SDS011;39093;52.788;6.940;2023-03-01T06:25:23;34.58;;;22.38;;
53207;SDS011;39093;52.788;6.940;2023-03-01T06:27:51;33.40;;;21.00;;
53207;SDS011;39093;52.788;6.940;2023-03-01T06:30:20;30.80;;;20.63;;
53207;SDS011;39093;52.788;6.940;2023-03-01T06:32:48;31.80;;;21.33;;
53207;SDS011;39093;52.788;6.940;2023-03-01T06:35:16;31.35;;;21.70;;
53207;SDS011;39093;52.788;6.940;2023-03-01T06:37:45;30.33;;;21.77;;
53207;SDS011;39093;52.788;6.940;2023-03-01T06:40:14;33.13;;;22.23;;
53207;SDS011;39093;52.788;6.940;2023-03-01T06:42:42;36.83;;;22.52;;
53207;SDS011;39093;52.788;6.940;2023-03-01T06:45:10;31.50;;;20.70;;
53207;SDS011;39093;52.788;6.940;2023-03-01T06:47:37;31.48;;;22.30;;
53207;SDS011;39093;52.788;6.940;2023-03-01T06:50:04;38.67;;;21.55;;
53207;SDS011;39093;52.788;6.940;2023-03-01T06:52:31;33.28;;;21.02;;
53207;SDS011;39093;52.788;6.940;2023-03-01T06:54:58;33.13;;;22.58;;
53207;SDS011;39093;52.788;6.940;2023-03-01T06:57:26;33.10;;;21.42;;
53207;SDS011;39093;52.788;6.940;2023-03-01T06:59:53;42.17;;;22.95;;
53207;SDS011;39093;52.788;6.940;2023-03-01T07:02:20;35.85;;;22.48;;
53207;SDS011;39093;52.788;6.940;2023-03-01T07:04:51;31.25;;;20.90;;
53207;SDS011;39093;52.788;6.940;2023-03-01T07:07:18;32.92;;;21.50;;
53207;SDS011;39093;52.788;6.940;2023-03-01T07:09:46;46.55;;;24.15;;
53207;SDS011;39093;52.788;6.940;2023-03-01T07:12:14;38.35;;;24.05;;
53207;SDS011;39093;52.788;6.940;2023-03-01T07:14:43;44.00;;;26.40;;
53207;SDS011;39093;52.788;6.940;2023-03-01T07:17:10;52.08;;;23.20;;
53207;SDS011;39093;52.788;6.940;2023-03-01T07:19:37;43.60;;;24.27;;
53207;SDS011;39093;52.788;6.940;2023-03-01T07:22:05;35.70;;;23.02;;
53207;SDS011;39093;52.788;6.940;2023-03-01T07:24:34;41.03;;;25.15;;
53207;SDS011;39093;52.788;6.940;2023-03-01T07:27:01;38.88;;;23.65;;
53207;SDS011;39093;52.788;6.940;2023-03-01T07:29:27;37.22;;;23.27;;
53207;SDS011;39093;52.788;6.940;2023-03-01T07:31:55;35.17;;;23.95;;
53207;SDS011;39093;52.788;6.940;2023-03-01T07:34:22;40.47;;;25.23;;
53207;SDS011;39093;52.788;6.940;2023-03-01T07:36:48;41.45;;;24.67;;
53207;SDS011;39093;52.788;6.940;2023-03-01T07:39:15;44.05;;;27.25;;
53207;SDS011;39093;52.788;6.940;2023-03-01T07:41:44;47.10;;;26.38;;
53207;SDS011;39093;52.788;6.940;2023-03-01T07:44:11;41.28;;;26.20;;
53207;SDS011;39093;52.788;6.940;2023-03-01T07:46:38;41.30;;;27.02;;
53207;SDS011;39093;52.788;6.940;2023-03-01T07:49:05;41.70;;;26.08;;
53207;SDS011;39093;52.788;6.940;2023-03-01T07:51:32;44.47;;;28.02;;
53207;SDS011;39093;52.788;6.940;2023-03-01T07:53:59;42.65;;;27.98;;
53207;SDS011;39093;52.788;6.940;2023-03-01T07:56:26;39.80;;;26.25;;
53207;SDS011;39093;52.788;6.940;2023-03-01T07:58:53;41.75;;;25.75;;
53207;SDS011;39093;52.788;6.940;2023-03-01T08:01:20;39.65;;;25.20;;
53207;SDS011;39093;52.788;6.940;2023-03-01T08:03:48;33.60;;;23.27;;
53207;SDS011;39093;52.788;6.940;2023-03-01T08:06:16;42.33;;;24.13;;
53207;SDS011;39093;52.788;6.940;2023-03-01T08:08:44;32.45;;;22.75;;
53207;SDS011;39093;52.788;6.940;2023-03-01T08:11:12;31.85;;;21.70;;
53207;SDS011;39093;52.788;6.940;2023-03-01T08:13:40;34.78;;;21.23;;
53207;SDS011;39093;52.788;6.940;2023-03-01T08:16:12;34.40;;;20.55;;
53207;SDS011;39093;52.788;6.940;2023-03-01T08:18:40;28.60;;;19.65;;
53207;SDS011;39093;52.788;6.940;2023-03-01T08:21:09;28.08;;;19.70;;
53207;SDS011;39093;52.788;6.940;2023-03-01T08:23:38;25.63;;;16.67;;
53207;SDS011;39093;52.788;6.940;2023-03-01T08:26:09;27.23;;;16.80;;
53207;SDS011;39093;52.788;6.940;2023-03-01T08:28:38;22.50;;;15.23;;
53207;SDS011;39093;52.788;6.940;2023-03-01T08:33:47;22.63;;;15.45;;
53207;SDS011;39093;52.788;6.940;2023-03-01T08:36:25;23.30;;;15.32;;
53207;SDS011;39093;52.788;6.940;2023-03-01T08:38:54;24.35;;;14.75;;
53207;SDS011;39093;52.788;6.940;2023-03-01T08:41:21;21.13;;;12.93;;
53207;SDS011;39093;52.788;6.940;2023-03-01T08:43:48;17.70;;;12.77;;
53207;SDS011;39093;52.788;6.940;2023-03-01T08:46:15;14.80;;;10.73;;
53207;SDS011;39093;52.788;6.940;2023-03-01T08:48:42;18.58;;;11.60;;
53207;SDS011;39093;52.788;6.940;2023-03-01T08:51:10;18.20;;;11.65;;
53207;SDS011;39093;52.788;6.940;2023-03-01T08:53:39;16.63;;;11.88;;
53207;SDS011;39093;52.788;6.940;2023-03-01T08:56:06;17.55;;;12.35;;
53207;SDS011;39093;52.788;6.940;2023-03-01T08:58:34;17.50;;;13.95;;
53207;SDS011;39093;52.788;6.940;2023-03-01T09:01:06;19.38;;;12.20;;
53207;SDS011;39093;52.788;6.940;2023-03-01T09:03:34;16.17;;;12.05;;
53207;SDS011;39093;52.788;6.940;2023-03-01T09:06:02;20.05;;;11.45;;
53207;SDS011;39093;52.788;6.940;2023-03-01T09:08:30;14.52;;;10.40;;
53207;SDS011;39093;52.788;6.940;2023-03-01T09:11:01;14.38;;;10.50;;
53207;SDS011;39093;52.788;6.940;2023-03-01T09:13:29;18.52;;;12.27;;
53207;SDS011;39093;52.788;6.940;2023-03-01T09:16:00;16.67;;;11.27;;
53207;SDS011;39093;52.788;6.940;2023-03-01T09:18:28;17.63;;;12.88;;
53207;SDS011;39093;52.788;6.940;2023-03-01T09:21:09;15.80;;;12.20;;
53207;SDS011;39093;52.788;6.940;2023-03-01T09:23:38;19.70;;;14.25;;
53207;SDS011;39093;52.788;6.940;2023-03-01T09:26:08;28.88;;;15.80;;
53207;SDS011;39093;52.788;6.940;2023-03-01T09:28:37;22.38;;;14.63;;
53207;SDS011;39093;52.788;6.940;2023-03-01T09:31:05;24.70;;;13.10;;
53207;SDS011;39093;52.788;6.940;2023-03-01T09:33:32;18.70;;;12.23;;
53207;SDS011;39093;52.788;6.940;2023-03-01T09:36:03;16.88;;;11.57;;
53207;SDS011;39093;52.788;6.940;2023-03-01T09:38:33;20.92;;;12.30;;
53207;SDS011;39093;52.788;6.940;2023-03-01T09:41:00;18.13;;;10.98;;
53207;SDS011;39093;52.788;6.940;2023-03-01T09:46:05;17.38;;;11.55;;
53207;SDS011;39093;52.788;6.940;2023-03-01T09:48:41;17.20;;;9.60;;
53207;SDS011;39093;52.788;6.940;2023-03-01T09:51:17;17.35;;;10.13;;
53207;SDS011;39093;52.788;6.940;2023-03-01T09:53:48;12.88;;;8.57;;
53207;SDS011;39093;52.788;6.940;2023-03-01T10:01:31;10.85;;;7.15;;
53207;SDS011;39093;52.788;6.940;2023-03-01T10:04:04;9.63;;;7.03;;
53207;SDS011;39093;52.788;6.940;2023-03-01T10:07:07;12.43;;;7.03;;
53207;SDS011;39093;52.788;6.940;2023-03-01T10:09:40;9.98;;;6.65;;
53207;SDS011;39093;52.788;6.940;2023-03-01T10:12:10;11.43;;;6.45;;
53207;SDS011;39093;52.788;6.940;2023-03-01T10:17:47;9.05;;;5.35;;
53207;SDS011;39093;52.788;6.940;2023-03-01T10:20:26;12.82;;;6.13;;
53207;SDS011;39093;52.788;6.940;2023-03-01T10:23:04;12.75;;;6.25;;
53207;SDS011;39093;52.788;6.940;2023-03-01T10:31:14;6.85;;;4.60;;
53207;SDS011;39093;52.788;6.940;2023-03-01T10:33:45;10.20;;;5.53;;
53207;SDS011;39093;52.788;6.940;2023-03-01T10:36:14;9.13;;;4.88;;
53207;SDS011;39093;52.788;6.940;2023-03-01T10:38:48;8.50;;;4.28;;
53207;SDS011;39093;52.788;6.940;2023-03-01T10:41:26;7.05;;;4.10;;
53207;SDS011;39093;52.788;6.940;2023-03-01T10:43:55;6.03;;;4.00;;
53207;SDS011;39093;52.788;6.940;2023-03-01T10:46:28;12.13;;;5.60;;
53207;SDS011;39093;52.788;6.940;2023-03-01T10:51:50;6.80;;;4.10;;
53207;SDS011;39093;52.788;6.940;2023-03-01T10:56:48;6.55;;;4.63;;
53207;SDS011;39093;52.788;6.940;2023-03-01T10:59:27;5.88;;;3.97;;
53207;SDS011;39093;52.788;6.940;2023-03-01T11:07:47;6.63;;;4.68;;
53207;SDS011;39093;52.788;6.940;2023-03-01T11:10:24;7.85;;;4.45;;
53207;SDS011;39093;52.788;6.940;2023-03-01T11:13:14;5.30;;;4.40;;
53207;SDS011;39093;52.788;6.940;2023-03-01T11:15:44;8.98;;;4.53;;
53207;SDS011;39093;52.788;6.940;2023-03-01T11:18:32;12.10;;;4.15;;
53207;SDS011;39093;52.788;6.940;2023-03-01T11:21:13;15.68;;;7.30;;
53207;SDS011;39093;52.788;6.940;2023-03-01T11:23:41;13.38;;;6.13;;
53207;SDS011;39093;52.788;6.940;2023-03-01T11:26:12;9.57;;;5.68;;
53207;SDS011;39093;52.788;6.940;2023-03-01T11:28:41;14.82;;;6.15;;
53207;SDS011;39093;52.788;6.940;2023-03-01T11:31:11;13.52;;;7.80;;
53207;SDS011;39093;52.788;6.940;2023-03-01T11:36:41;8.45;;;5.10;;
53207;SDS011;39093;52.788;6.940;2023-03-01T11:39:17;5.22;;;4.15;;
53207;SDS011;39093;52.788;6.940;2023-03-01T11:44:58;7.63;;;5.00;;
53207;SDS011;39093;52.788;6.940;2023-03-01T12:06:55;8.13;;;5.55;;
53207;SDS011;39093;52.788;6.940;2023-03-01T12:15:11;7.60;;;4.80;;
53207;SDS011;39093;52.788;6.940;2023-03-01T12:23:45;6.15;;;4.65;;
53207;SDS011;39093;52.788;6.940;2023-03-01T12:29:07;9.05;;;5.60;;
53207;SDS011;39093;52.788;6.940;2023-03-01T12:37:25;7.10;;;5.60;;
53207;SDS011;39093;52.788;6.940;2023-03-01T12:43:03;7.78;;;5.25;;
53207;SDS011;39093;52.788;6.940;2023-03-01T12:50:49;8.52;;;5.22;;
53207;SDS011;39093;52.788;6.940;2023-03-01T12:53:52;8.45;;;5.47;;
53207;SDS011;39093;52.788;6.940;2023-03-01T12:56:16;6.28;;;5.05;;
53207;SDS011;39093;52.788;6.940;2023-03-01T13:06:44;10.10;;;5.30;;
53207;SDS011;39093;52.788;6.940;2023-03-01T13:17:49;8.48;;;5.82;;
53207;SDS011;39093;52.788;6.940;2023-03-01T13:21:04;9.35;;;5.95;;
53207;SDS011;39093;52.788;6.940;2023-03-01T13:35:55;8.05;;;6.57;;
53207;SDS011;39093;52.788;6.940;2023-03-01T13:46:47;11.50;;;7.25;;
53207;SDS011;39093;52.788;6.940;2023-03-01T13:49:27;13.32;;;8.52;;
53207;SDS011;39093;52.788;6.940;2023-03-01T13:57:44;9.25;;;7.22;;
53207;SDS011;39093;52.788;6.940;2023-03-01T14:00:24;9.65;;;6.38;;
53207;SDS011;39093;52.788;6.940;2023-03-01T14:03:16;9.03;;;6.10;;
53207;SDS011;39093;52.788;6.940;2023-03-01T14:05:58;9.15;;;7.13;;
53207;SDS011;39093;52.788;6.940;2023-03-01T14:08:41;11.00;;;7.43;;
53207;SDS011;39093;52.788;6.940;2023-03-01T14:17:22;10.15;;;7.20;;
53207;SDS011;39093;52.788;6.940;2023-03-01T14:19:55;11.50;;;8.13;;
53207;SDS011;39093;52.788;6.940;2023-03-01T14:22:26;13.13;;;8.80;;
53207;SDS011;39093;52.788;6.940;2023-03-01T14:24:59;10.50;;;8.02;;
53207;SDS011;39093;52.788;6.940;2023-03-01T14:27:33;8.70;;;7.80;;
53207;SDS011;39093;52.788;6.940;2023-03-01T14:30:04;10.13;;;8.05;;
53207;SDS011;39093;52.788;6.940;2023-03-01T14:32:43;11.60;;;8.40;;
53207;SDS011;39093;52.788;6.940;2023-03-01T14:35:24;9.27;;;7.53;;
53207;SDS011;39093;52.788;6.940;2023-03-01T14:37:53;10.20;;;7.40;;
53207;SDS011;39093;52.788;6.940;2023-03-01T14:40:25;9.13;;;7.45;;
53207;SDS011;39093;52.788;6.940;2023-03-01T14:42:58;11.30;;;7.50;;
53207;SDS011;39093;52.788;6.940;2023-03-01T14:45:28;10.93;;;7.88;;
53207;SDS011;39093;52.788;6.940;2023-03-01T14:48:00;11.55;;;7.55;;
53207;SDS011;39093;52.788;6.940;2023-03-01T14:50:31;11.32;;;7.57;;
53207;SDS011;39093;52.788;6.940;2023-03-01T14:53:01;11.07;;;7.43;;
53207;SDS011;39093;52.788;6.940;2023-03-01T14:55:35;13.75;;;8.20;;
53207;SDS011;39093;52.788;6.940;2023-03-01T14:58:05;9.57;;;7.35;;
53207;SDS011;39093;52.788;6.940;2023-03-01T15:00:35;9.35;;;7.30;;
53207;SDS011;39093;52.788;6.940;2023-03-01T15:03:06;9.85;;;7.75;;
53207;SDS011;39093;52.788;6.940;2023-03-01T15:05:40;10.45;;;7.82;;
53207;SDS011;39093;52.788;6.940;2023-03-01T15:08:20;8.32;;;6.70;;
53207;SDS011;39093;52.788;6.940;2023-03-01T15:11:01;8.25;;;5.97;;
53207;SDS011;39093;52.788;6.940;2023-03-01T15:13:34;8.77;;;6.95;;
53207;SDS011;39093;52.788;6.940;2023-03-01T15:18:46;8.98;;;6.20;;
53207;SDS011;39093;52.788;6.940;2023-03-01T15:21:26;11.30;;;7.22;;
53207;SDS011;39093;52.788;6.940;2023-03-01T15:24:05;20.42;;;8.63;;
53207;SDS011;39093;52.788;6.940;2023-03-01T15:26:58;10.02;;;7.18;;
53207;SDS011;39093;52.788;6.940;2023-03-01T15:29:33;15.07;;;7.07;;
53207;SDS011;39093;52.788;6.940;2023-03-01T15:35:01;11.80;;;7.55;;
53207;SDS011;39093;52.788;6.940;2023-03-01T15:40:59;9.35;;;7.60;;
53207;SDS011;39093;52.788;6.940;2023-03-01T15:46:12;14.13;;;8.55;;
53207;SDS011;39093;52.788;6.940;2023-03-01T15:48:46;12.15;;;8.25;;
53207;SDS011;39093;52.788;6.940;2023-03-01T15:51:20;11.63;;;7.95;;
53207;SDS011;39093;52.788;6.940;2023-03-01T15:53:55;14.10;;;8.32;;
53207;SDS011;39093;52.788;6.940;2023-03-01T15:56:25;12.73;;;7.35;;
53207;SDS011;39093;52.788;6.940;2023-03-01T15:58:52;13.38;;;8.90;;
53207;SDS011;39093;52.788;6.940;2023-03-01T16:01:23;11.27;;;8.93;;
53207;SDS011;39093;52.788;6.940;2023-03-01T16:03:50;11.07;;;7.30;;
53207;SDS011;39093;52.788;6.940;2023-03-01T16:06:17;10.40;;;7.70;;
53207;SDS011;39093;52.788;6.940;2023-03-01T16:08:46;9.27;;;7.47;;
53207;SDS011;39093;52.788;6.940;2023-03-01T16:11:15;9.63;;;7.60;;
53207;SDS011;39093;52.788;6.940;2023-03-01T16:13:44;9.52;;;7.45;;
53207;SDS011;39093;52.788;6.940;2023-03-01T16:16:12;11.50;;;8.05;;
53207;SDS011;39093;52.788;6.940;2023-03-01T16:18:43;11.90;;;8.27;;
53207;SDS011;39093;52.788;6.940;2023-03-01T16:21:21;9.82;;;7.10;;
53207;SDS011;39093;52.788;6.940;2023-03-01T16:23:51;10.88;;;7.15;;
53207;SDS011;39093;52.788;6.940;2023-03-01T16:26:19;11.18;;;7.70;;
53207;SDS011;39093;52.788;6.940;2023-03-01T16:28:46;9.73;;;7.68;;
53207;SDS011;39093;52.788;6.940;2023-03-01T16:31:17;15.55;;;10.05;;
53207;SDS011;39093;52.788;6.940;2023-03-01T16:33:46;18.77;;;11.43;;
53207;SDS011;39093;52.788;6.940;2023-03-01T16:36:17;11.00;;;8.60;;
53207;SDS011;39093;52.788;6.940;2023-03-01T16:38:45;12.18;;;8.43;;
53207;SDS011;39093;52.788;6.940;2023-03-01T16:41:14;10.93;;;8.80;;
53207;SDS011;39093;52.788;6.940;2023-03-01T16:43:43;9.45;;;8.30;;
53207;SDS011;39093;52.788;6.940;2023-03-01T16:46:24;11.63;;;8.90;;
53207;SDS011;39093;52.788;6.940;2023-03-01T16:48:54;12.65;;;9.20;;
53207;SDS011;39093;52.788;6.940;2023-03-01T16:51:22;11.13;;;8.90;;
53207;SDS011;39093;52.788;6.940;2023-03-01T16:53:50;12.48;;;9.27;;
53207;SDS011;39093;52.788;6.940;2023-03-01T16:56:18;12.77;;;9.50;;
53207;SDS011;39093;52.788;6.940;2023-03-01T16:58:45;12.98;;;9.93;;
53207;SDS011;39093;52.788;6.940;2023-03-01T17:01:16;12.25;;;9.75;;
53207;SDS011;39093;52.788;6.940;2023-03-01T17:03:45;11.80;;;9.73;;
53207;SDS011;39093;52.788;6.940;2023-03-01T17:06:14;14.35;;;11.05;;
53207;SDS011;39093;52.788;6.940;2023-03-01T17:08:43;14.50;;;9.75;;
53207;SDS011;39093;52.788;6.940;2023-03-01T17:11:14;15.35;;;10.90;;
53207;SDS011;39093;52.788;6.940;2023-03-01T17:13:45;15.35;;;10.75;;
53207;SDS011;39093;52.788;6.940;2023-03-01T17:16:14;14.80;;;11.63;;
53207;SDS011;39093;52.788;6.940;2023-03-01T17:18:43;14.90;;;11.57;;
53207;SDS011;39093;52.788;6.940;2023-03-01T17:21:11;16.95;;;12.23;;
53207;SDS011;39093;52.788;6.940;2023-03-01T17:23:39;18.25;;;12.57;;
53207;SDS011;39093;52.788;6.940;2023-03-01T17:26:08;19.45;;;13.32;;
53207;SDS011;39093;52.788;6.940;2023-03-01T17:28:36;15.85;;;13.10;;
53207;SDS011;39093;52.788;6.940;2023-03-01T17:31:04;18.98;;;12.68;;
53207;SDS011;39093;52.788;6.940;2023-03-01T17:33:31;18.70;;;13.20;;
53207;SDS011;39093;52.788;6.940;2023-03-01T17:35:58;19.33;;;12.93;;